Hobart, Hobart Regional Airport (KHBR)

NameHobart Regional Airport
CityHobart
CountryUnited States
ICAOKHBR
IATAHBR
Altitude477 m
CoordinatesGoogle Map
Live Air TrafficLiveATC.net
METARKHBR 171953Z AUTO 07011KT 10SM FEW085 18/04 A3041 RMK AO2 SLP292 T01830044
2018-10-17 19:53:00 Wind: East-Northeast (70°) 5.66 m/s - Visibility: 16093.4 m - Temperature: 18 °C - Dew point: 4 °C - Humidity: 39.6% - Pressure: 1029.8 hPa

Sorry, no flights used the airport in this database.